createdAt,value
2019-03-18T00:00:27.432Z,20.8
2019-03-18T00:01:17.456Z,20.8
2019-03-18T00:02:07.286Z,20.8
2019-03-18T00:02:57.411Z,20.8
2019-03-18T00:03:47.658Z,20.8
2019-03-18T00:04:37.694Z,20.8
2019-03-18T00:05:27.563Z,20.8
2019-03-18T00:06:17.551Z,20.8
2019-03-18T00:07:07.879Z,20.8
2019-03-18T00:07:57.684Z,20.8
2019-03-18T00:08:47.734Z,20.8
2019-03-18T00:09:37.516Z,20.8
2019-03-18T00:10:27.124Z,20.8
2019-03-18T00:11:17.628Z,20.8
2019-03-18T00:12:07.758Z,20.8
2019-03-18T00:12:58.032Z,20.8
2019-03-18T00:13:48.098Z,20.8
2019-03-18T00:14:38.426Z,20.8
2019-03-18T00:15:28.623Z,20.8
2019-03-18T00:16:18.014Z,20.8
2019-03-18T00:17:08.348Z,20.8
2019-03-18T00:17:57.880Z,20.8
2019-03-18T00:18:48.466Z,20.8
2019-03-18T00:19:38.238Z,20.8
2019-03-18T00:20:28.019Z,20.8
2019-03-18T00:21:18.363Z,20.8
2019-03-18T00:22:08.698Z,20.8
2019-03-18T00:22:58.765Z,20.8
2019-03-18T00:23:48.823Z,20.8
2019-03-18T00:24:38.872Z,20.8
2019-03-18T00:25:29.215Z,20.8
2019-03-18T00:26:18.730Z,20.8
2019-03-18T00:27:08.216Z,20.7
2019-03-18T00:27:59.392Z,20.8
2019-03-18T00:28:49.465Z,20.8
2019-03-18T00:29:39.588Z,20.8
2019-03-18T00:30:29.573Z,20.7
2019-03-18T00:31:18.788Z,20.7
2019-03-18T00:32:09.432Z,20.7
2019-03-18T00:32:59.567Z,20.7
2019-03-18T00:33:49.267Z,20.7
2019-03-18T00:34:39.860Z,20.7
2019-03-18T00:35:29.653Z,20.7
2019-03-18T00:36:19.464Z,20.7
2019-03-18T00:37:09.863Z,20.7
2019-03-18T00:38:00.144Z,20.7
2019-03-18T00:38:49.915Z,20.7
2019-03-18T00:39:40.045Z,20.7
2019-03-18T00:40:30.042Z,20.7
2019-03-18T00:41:19.817Z,20.7
2019-03-18T00:42:10.140Z,20.7
2019-03-18T00:42:59.976Z,20.7
2019-03-18T00:43:50.565Z,20.7
2019-03-18T00:44:40.335Z,20.7
2019-03-18T00:45:30.666Z,20.7
2019-03-18T00:46:20.464Z,20.7
2019-03-18T00:47:10.554Z,20.7
2019-03-18T00:48:00.344Z,20.7
2019-03-18T00:48:50.624Z,20.7
2019-03-18T00:49:40.955Z,20.7
2019-03-18T00:50:30.759Z,20.7
2019-03-18T00:51:20.799Z,20.7
2019-03-18T00:52:10.589Z,20.7
2019-03-18T00:53:00.642Z,20.7
2019-03-18T00:53:51.263Z,20.7
2019-03-18T00:54:40.809Z,20.7
2019-03-18T00:55:31.130Z,20.7
2019-03-18T00:56:21.514Z,20.7
2019-03-18T00:57:11.029Z,20.7
2019-03-18T00:58:01.283Z,20.7
2019-03-18T00:58:51.626Z,20.7
2019-03-18T00:59:40.373Z,20.7
2019-03-18T01:00:31.569Z,20.7
2019-03-18T01:01:21.246Z,20.7
2019-03-18T01:02:11.593Z,20.7
2019-03-18T01:03:01.376Z,20.7
2019-03-18T01:03:51.982Z,20.7
2019-03-18T01:04:42.043Z,20.6
2019-03-18T01:05:32.103Z,20.7
2019-03-18T01:06:21.111Z,20.6
2019-03-18T01:07:11.406Z,20.6
2019-03-18T01:08:02.056Z,20.7
2019-03-18T01:08:51.805Z,20.7
2019-03-18T01:09:42.137Z,20.6
2019-03-18T01:10:32.483Z,20.6
2019-03-18T01:11:22.242Z,20.6
2019-03-18T01:12:12.306Z,20.7
2019-03-18T01:13:01.816Z,20.6
2019-03-18T01:13:52.158Z,20.6
2019-03-18T01:14:42.485Z,20.6
2019-03-18T01:15:32.878Z,20.6
2019-03-18T01:16:22.598Z,20.6
2019-03-18T01:17:12.955Z,20.6
2019-03-18T01:18:02.818Z,20.6
2019-03-18T01:18:52.517Z,20.6
2019-03-18T01:19:42.573Z,20.6
2019-03-18T01:20:32.665Z,20.6
2019-03-18T01:21:23.303Z,20.6
2019-03-18T01:22:12.767Z,20.6
2019-03-18T01:23:02.560Z,20.6
2019-03-18T01:23:53.249Z,20.6
2019-03-18T01:24:43.217Z,20.6
2019-03-18T01:25:33.277Z,20.6
2019-03-18T01:26:23.367Z,20.6
2019-03-18T01:27:13.144Z,20.6
2019-03-18T01:28:03.737Z,20.6
2019-03-18T01:28:53.239Z,20.6
2019-03-18T01:29:43.577Z,20.6
2019-03-18T01:30:33.919Z,20.6
2019-03-18T01:31:24.007Z,20.6
2019-03-18T01:32:13.756Z,20.6
2019-03-18T01:33:03.544Z,20.6
2019-03-18T01:33:53.589Z,20.6
2019-03-18T01:34:44.209Z,20.6
2019-03-18T01:35:34.042Z,20.6
2019-03-18T01:36:23.559Z,20.6
2019-03-18T01:37:13.829Z,20.6
2019-03-18T01:38:04.469Z,20.6
2019-03-18T01:38:54.232Z,20.6
2019-03-18T01:39:44.014Z,20.6
2019-03-18T01:40:34.646Z,20.6
2019-03-18T01:41:24.539Z,20.6
2019-03-18T01:42:17.626Z,20.6
2019-03-18T01:43:04.539Z,20.6
2019-03-18T01:43:54.621Z,20.6
2019-03-18T01:44:44.384Z,20.5
2019-03-18T01:45:43.743Z,20.6
2019-03-18T01:46:24.241Z,20.6
2019-03-18T01:47:14.856Z,20.6
2019-03-18T01:48:04.638Z,20.5
2019-03-18T01:48:54.966Z,20.6
2019-03-18T01:49:44.738Z,20.6
2019-03-18T01:50:35.355Z,20.5
2019-03-18T01:51:24.315Z,20.5
2019-03-18T01:52:14.925Z,20.5
2019-03-18T01:53:05.270Z,20.5
2019-03-18T01:53:55.608Z,20.5
2019-03-18T01:54:45.696Z,20.6
2019-03-18T01:55:35.443Z,20.5
2019-03-18T01:56:25.565Z,20.5
2019-03-18T01:57:15.576Z,20.5
2019-03-18T01:58:05.626Z,20.5
2019-03-18T01:58:55.418Z,20.5
2019-03-18T01:59:45.726Z,20.5
2019-03-18T02:00:35.810Z,20.4
2019-03-18T02:01:26.152Z,20.5
2019-03-18T02:02:16.207Z,20.5
2019-03-18T02:03:06.358Z,20.5
2019-03-18T02:03:56.048Z,20.5
2019-03-18T02:04:46.383Z,20.5
2019-03-18T02:05:36.182Z,20.5
2019-03-18T02:06:25.970Z,20.5
2019-03-18T02:07:16.042Z,20.5
2019-03-18T02:08:06.067Z,20.5
2019-03-18T02:08:56.125Z,20.5
2019-03-18T02:09:46.190Z,20.4
2019-03-18T02:10:36.808Z,20.4
2019-03-18T02:11:26.304Z,20.4
2019-03-18T02:12:16.649Z,20.5
2019-03-18T02:13:06.707Z,20.4
2019-03-18T02:13:56.249Z,20.4
2019-03-18T02:14:46.837Z,20.4
2019-03-18T02:15:36.610Z,20.4
2019-03-18T02:16:26.939Z,20.4
2019-03-18T02:17:17.402Z,20.4
2019-03-18T02:18:07.089Z,20.4
2019-03-18T02:18:57.152Z,20.4
2019-03-18T02:19:47.465Z,20.4
2019-03-18T02:20:37.602Z,20.4
2019-03-18T02:21:27.304Z,20.4
2019-03-18T02:22:17.659Z,20.4
2019-03-18T02:23:07.154Z,20.4
2019-03-18T02:23:57.251Z,20.4
2019-03-18T02:24:47.830Z,20.4
2019-03-18T02:25:37.606Z,20.4
2019-03-18T02:26:27.125Z,20.4
2019-03-18T02:27:17.466Z,20.4
2019-03-18T02:28:08.087Z,20.4
2019-03-18T02:28:57.960Z,20.4
2019-03-18T02:29:48.196Z,20.4
2019-03-18T02:30:38.292Z,20.4
2019-03-18T02:31:27.798Z,20.4
2019-03-18T02:32:18.126Z,20.4
2019-03-18T02:33:08.215Z,20.4
2019-03-18T02:33:58.303Z,20.4
2019-03-18T02:34:48.058Z,20.4
2019-03-18T02:35:38.400Z,20.4
2019-03-18T02:36:28.714Z,20.4
2019-03-18T02:37:18.483Z,20.4
2019-03-18T02:38:08.590Z,20.4
2019-03-18T02:38:58.649Z,20.4
2019-03-18T02:39:48.411Z,20.4
2019-03-18T02:40:38.753Z,20.4
2019-03-18T02:41:28.800Z,20.4
2019-03-18T02:42:18.873Z,20.4
2019-03-18T02:43:08.660Z,20.4
2019-03-18T02:43:58.697Z,20.4
2019-03-18T02:44:49.305Z,20.4
2019-03-18T02:45:39.093Z,20.4
2019-03-18T02:46:29.023Z,20.4
2019-03-18T02:47:19.486Z,20.4
2019-03-18T02:48:09.278Z,20.4
2019-03-18T02:48:59.396Z,20.4
2019-03-18T02:49:49.120Z,20.4
2019-03-18T02:50:39.265Z,20.3
2019-03-18T02:51:29.806Z,20.3
2019-03-18T02:52:19.906Z,20.3
2019-03-18T02:53:09.918Z,20.3
2019-03-18T02:54:00.035Z,20.3
2019-03-18T02:54:50.043Z,20.3
2019-03-18T02:55:39.552Z,20.3
2019-03-18T02:56:29.915Z,20.3
2019-03-18T02:57:19.650Z,20.3
2019-03-18T02:58:09.733Z,20.3
2019-03-18T02:59:00.052Z,20.3
2019-03-18T02:59:50.187Z,20.3
2019-03-18T03:00:40.231Z,20.3
2019-03-18T03:01:29.946Z,20.3
2019-03-18T03:02:20.577Z,20.3
2019-03-18T03:03:09.874Z,20.3
2019-03-18T03:04:00.514Z,20.3
2019-03-18T03:07:31.357Z,20.3
2019-03-18T03:08:21.404Z,20.3
2019-03-18T03:09:11.599Z,20.3
2019-03-18T03:10:01.140Z,20.3
2019-03-18T03:10:51.490Z,20.3
2019-03-18T03:11:41.535Z,20.3
2019-03-18T03:12:31.939Z,20.3
2019-03-18T03:13:21.929Z,20.3
2019-03-18T03:14:11.732Z,20.3
2019-03-18T03:15:01.855Z,20.3
2019-03-18T03:15:52.149Z,20.3
2019-03-18T03:16:41.601Z,20.3
2019-03-18T03:17:32.239Z,20.3
2019-03-18T03:18:22.129Z,20.3
2019-03-18T03:19:12.161Z,20.3
2019-03-18T03:20:02.520Z,20.3
2019-03-18T03:20:52.466Z,20.3
2019-03-18T03:21:42.516Z,20.3
2019-03-18T03:22:32.576Z,20.3
2019-03-18T03:23:22.411Z,20.3
2019-03-18T03:24:12.676Z,20.3
2019-03-18T03:25:02.680Z,20.3
2019-03-18T03:25:52.789Z,20.3
2019-03-18T03:26:42.745Z,20.3
2019-03-18T03:27:33.069Z,20.3
2019-03-18T03:28:22.717Z,20.3
2019-03-18T03:29:12.617Z,20.3
2019-03-18T03:30:03.506Z,20.3
2019-03-18T03:30:53.326Z,20.3
2019-03-18T03:31:42.916Z,20.2
2019-03-18T03:32:33.106Z,20.3
2019-03-18T03:33:23.351Z,20.3
2019-03-18T03:34:16.983Z,20.3
2019-03-18T03:35:04.524Z,20.2
2019-03-18T03:35:52.989Z,20.3
2019-03-18T03:36:43.048Z,20.2
2019-03-18T03:37:33.355Z,20.3
2019-03-18T03:38:23.719Z,20.2
2019-03-18T03:39:13.230Z,20.2
2019-03-18T03:40:04.022Z,20.3
2019-03-18T03:40:53.924Z,20.2
2019-03-18T03:41:43.795Z,20.2
2019-03-18T03:42:33.502Z,20.2
2019-03-18T03:43:24.050Z,20.2
2019-03-18T03:44:13.928Z,20.2
2019-03-18T03:45:04.214Z,20.2
2019-03-18T03:45:54.267Z,20.2
2019-03-18T03:46:46.924Z,20.2
2019-03-18T03:47:34.526Z,20.2
2019-03-18T03:48:24.193Z,20.2
2019-03-18T03:49:14.302Z,20.2
2019-03-18T03:50:04.599Z,20.2
2019-03-18T03:50:54.078Z,20.2
2019-03-18T03:51:44.139Z,20.2
2019-03-18T03:52:34.472Z,20.2
2019-03-18T03:53:24.248Z,20.2
2019-03-18T03:54:14.662Z,20.2
2019-03-18T03:55:05.053Z,20.2
2019-03-18T03:55:54.705Z,20.2
2019-03-18T03:56:45.083Z,20.2
2019-03-18T03:57:34.817Z,20.2
2019-03-18T03:58:24.902Z,20.2
2019-03-18T03:59:15.249Z,20.2
2019-03-18T04:00:05.117Z,20.2
2019-03-18T04:00:55.087Z,20.2
2019-03-18T04:01:44.874Z,20.2
2019-03-18T04:02:35.464Z,20.2
2019-03-18T04:03:41.970Z,20.2
2019-03-18T04:04:15.687Z,20.2
2019-03-18T04:05:05.159Z,20.1
2019-03-18T04:05:55.305Z,20.2
2019-03-18T04:06:45.521Z,20.1
2019-03-18T04:07:35.811Z,20.1
2019-03-18T04:08:25.482Z,20.1
2019-03-18T04:09:15.104Z,20.1
2019-03-18T04:10:05.762Z,20.1
2019-03-18T04:10:55.782Z,20.1
2019-03-18T04:11:45.845Z,20.1
2019-03-18T04:12:36.183Z,20.1
2019-03-18T04:13:25.706Z,20.1
2019-03-18T04:14:16.285Z,20.1
2019-03-18T04:15:05.561Z,20.1
2019-03-18T04:15:56.420Z,20.1
2019-03-18T04:17:05.564Z,20.1
2019-03-18T04:17:36.526Z,20.1
2019-03-18T04:18:26.328Z,20.1
2019-03-18T04:19:16.660Z,20.1
2019-03-18T04:20:06.219Z,20.1
2019-03-18T04:20:56.618Z,20.1
2019-03-18T04:21:50.110Z,20.1
2019-03-18T04:22:36.645Z,20.1
2019-03-18T04:23:27.017Z,20.1
2019-03-18T04:24:16.200Z,20.1
2019-03-18T04:25:21.588Z,20.1
2019-03-18T04:25:57.176Z,20.1
2019-03-18T04:26:46.940Z,20.1
2019-03-18T04:27:37.255Z,20.1
2019-03-18T04:28:27.083Z,20.1
2019-03-18T04:29:17.157Z,20.1
2019-03-18T04:30:07.462Z,20.1
2019-03-18T04:30:57.525Z,20.1
2019-03-18T04:31:47.328Z,20.1
2019-03-18T04:32:37.346Z,20.1
2019-03-18T04:33:27.665Z,20.1
2019-03-18T04:34:17.444Z,20.1
2019-03-18T04:35:07.234Z,20.1
2019-03-18T04:35:57.933Z,20.1
2019-03-18T04:36:47.937Z,20.1
2019-03-18T04:37:37.723Z,20.1
2019-03-18T04:38:27.759Z,20.1
2019-03-18T04:39:17.913Z,20.1
2019-03-18T04:40:08.161Z,20.1
2019-03-18T04:40:57.916Z,20.1
2019-03-18T04:41:47.713Z,20.1
2019-03-18T04:42:38.304Z,20.1
2019-03-18T04:43:28.096Z,20.1
2019-03-18T04:44:18.156Z,20.1
2019-03-18T04:45:08.212Z,20.1
2019-03-18T04:45:58.273Z,20.1
2019-03-18T04:46:48.064Z,20.1
2019-03-18T04:47:38.681Z,20.1
2019-03-18T04:48:28.451Z,20.1
2019-03-18T04:49:18.818Z,20.1
2019-03-18T04:50:07.773Z,20.1
2019-03-18T04:50:58.921Z,20.1
2019-03-18T04:51:48.748Z,20.1
2019-03-18T04:52:38.233Z,20.1
2019-03-18T04:53:28.539Z,20.1
2019-03-18T04:54:18.641Z,20.1
2019-03-18T04:55:09.229Z,20.1
2019-03-18T04:55:59.271Z,20.1
2019-03-18T04:56:49.108Z,20.1
2019-03-18T04:57:39.158Z,20.1
2019-03-18T04:58:29.455Z,20.1
2019-03-18T04:59:19.329Z,20.1
2019-03-18T05:00:09.592Z,20.1
2019-03-18T05:00:59.150Z,20.1
2019-03-18T05:01:49.145Z,20.1
2019-03-18T05:02:38.923Z,20.1
2019-03-18T05:03:29.895Z,20.1
2019-03-18T05:04:19.057Z,20.1
2019-03-18T05:05:09.940Z,20.1
2019-03-18T05:05:59.702Z,20.1
2019-03-18T05:06:49.765Z,20.1
2019-03-18T05:07:39.560Z,20.1
2019-03-18T05:08:29.670Z,20.1
2019-03-18T05:09:20.219Z,20.1
2019-03-18T05:10:10.298Z,20.1
2019-03-18T05:10:59.525Z,20.1
2019-03-18T05:11:49.847Z,20.1
2019-03-18T05:12:40.215Z,20.1
2019-03-18T05:13:30.282Z,20.1
2019-03-18T05:14:20.053Z,20.1
2019-03-18T05:15:10.399Z,20.1
2019-03-18T05:16:00.507Z,20.1
2019-03-18T05:16:50.212Z,20.1
2019-03-18T05:17:40.562Z,20.1
2019-03-18T05:18:30.052Z,20.1
2019-03-18T05:19:20.738Z,20.1
2019-03-18T05:20:10.507Z,20.1
2019-03-18T05:21:00.803Z,20.1
2019-03-18T05:21:50.579Z,20.1
2019-03-18T05:22:41.219Z,20.1
2019-03-18T05:23:30.686Z,20.1
2019-03-18T05:24:21.313Z,20.1
2019-03-18T05:25:11.376Z,20.1
2019-03-18T05:26:01.414Z,20.1
2019-03-18T05:26:51.226Z,20.1
2019-03-18T05:27:41.012Z,20.1
2019-03-18T05:28:31.599Z,20.1
2019-03-18T05:29:21.409Z,20.1
2019-03-18T05:30:11.165Z,20.1
2019-03-18T05:31:01.795Z,20.1
2019-03-18T05:31:51.876Z,20.1
2019-03-18T05:32:41.933Z,20.1
2019-03-18T05:33:31.701Z,20.1
2019-03-18T05:34:22.037Z,20.1
2019-03-18T05:35:12.108Z,20.1
2019-03-18T05:36:01.919Z,20.1
2019-03-18T05:36:52.269Z,20.1
2019-03-18T05:37:42.021Z,20.1
2019-03-18T05:38:32.061Z,20.1
2019-03-18T05:39:21.568Z,20.1
2019-03-18T05:40:11.948Z,20.1
2019-03-18T05:41:02.508Z,20.1
2019-03-18T05:41:52.317Z,20.1
2019-03-18T05:42:42.416Z,20.1
2019-03-18T05:43:32.678Z,20.1
2019-03-18T05:44:22.500Z,20.1
2019-03-18T05:45:12.868Z,20.1
2019-03-18T05:46:02.868Z,20.1
2019-03-18T05:46:52.394Z,20.1
2019-03-18T05:47:43.469Z,20.1
2019-03-18T05:48:32.844Z,20
2019-03-18T05:49:22.559Z,20.1
2019-03-18T05:50:12.761Z,20.1
2019-03-18T05:51:02.691Z,20.1
2019-03-18T05:51:53.021Z,20
2019-03-18T05:52:43.356Z,20
2019-03-18T05:53:33.126Z,20
2019-03-18T05:54:23.464Z,20.1
2019-03-18T05:55:12.741Z,20.1
2019-03-18T05:56:02.866Z,20
2019-03-18T05:56:53.738Z,20.1
2019-03-18T05:57:43.721Z,20
2019-03-18T05:58:33.242Z,20
2019-03-18T05:59:23.651Z,20
2019-03-18T06:00:13.623Z,20.1
2019-03-18T06:01:03.507Z,20
2019-03-18T06:01:53.483Z,20
2019-03-18T06:02:47.559Z,20
2019-03-18T06:03:33.576Z,20
2019-03-18T06:05:31.333Z,20
2019-03-18T06:06:21.117Z,20
2019-03-18T06:07:11.195Z,20
2019-03-18T06:08:01.062Z,20.1
2019-03-18T06:08:51.312Z,20
2019-03-18T06:09:41.090Z,20
2019-03-18T06:10:31.166Z,20.1
2019-03-18T06:11:21.505Z,20
2019-03-18T06:12:11.818Z,20
2019-03-18T06:13:01.600Z,20
2019-03-18T06:13:51.653Z,20
2019-03-18T06:14:41.783Z,20
2019-03-18T06:15:32.045Z,20
2019-03-18T06:16:22.117Z,20
2019-03-18T06:17:12.180Z,20
2019-03-18T06:18:02.054Z,20
2019-03-18T06:18:52.012Z,20
2019-03-18T06:19:41.795Z,20
2019-03-18T06:20:32.417Z,20
2019-03-18T06:21:21.914Z,20
2019-03-18T06:22:11.709Z,20
2019-03-18T06:23:02.330Z,20
2019-03-18T06:23:52.109Z,20
2019-03-18T06:24:42.719Z,20
2019-03-18T06:25:32.527Z,20
2019-03-18T06:26:22.564Z,20
2019-03-18T06:27:12.144Z,20
2019-03-18T06:28:02.953Z,20
2019-03-18T06:28:53.027Z,20
2019-03-18T06:29:42.832Z,20
2019-03-18T06:30:32.576Z,20
2019-03-18T06:31:22.644Z,20
2019-03-18T06:32:13.004Z,20
2019-03-18T06:33:02.786Z,20
2019-03-18T06:33:53.393Z,20
2019-03-18T06:34:43.151Z,20
2019-03-18T06:35:33.236Z,20
2019-03-18T06:36:23.364Z,20
2019-03-18T06:37:13.339Z,20
2019-03-18T06:38:03.124Z,20
2019-03-18T06:38:53.461Z,20
2019-03-18T06:39:43.508Z,20
2019-03-18T06:40:33.561Z,20
2019-03-18T06:41:23.916Z,20
2019-03-18T06:42:13.706Z,20
2019-03-18T06:43:03.543Z,20
2019-03-18T06:43:53.821Z,20
2019-03-18T06:44:43.606Z,20
2019-03-18T06:45:33.661Z,20
2019-03-18T06:46:22.604Z,20
2019-03-18T06:47:13.802Z,20
2019-03-18T06:48:11.584Z,20
2019-03-18T06:48:54.475Z,20
2019-03-18T06:49:44.240Z,20
2019-03-18T06:50:34.040Z,19.3
2019-03-18T06:51:24.663Z,23.1
2019-03-18T06:52:14.712Z,38.6
2019-03-18T06:53:04.526Z,44.1
2019-03-18T06:53:54.828Z,44.4
2019-03-18T06:54:44.610Z,43.1
2019-03-18T06:55:34.669Z,42.4
2019-03-18T06:56:25.030Z,41.8
2019-03-18T06:57:14.522Z,41.3
2019-03-18T06:58:05.133Z,40.8
2019-03-18T06:58:54.095Z,40.4
2019-03-18T06:59:44.712Z,39.9
2019-03-18T07:00:34.750Z,39.4
2019-03-18T07:01:24.812Z,39
2019-03-18T07:02:14.862Z,38.6
2019-03-18T07:03:04.940Z,38.1
2019-03-18T10:06:31.186Z,69.1
2019-03-18T10:07:21.152Z,69.1
2019-03-18T10:08:11.715Z,69.1
2019-03-18T10:09:16.055Z,69.2
2019-03-18T10:09:50.832Z,69.3
2019-03-18T10:10:41.434Z,69.3
2019-03-18T10:11:31.520Z,69.4
2019-03-18T10:12:35.932Z,69.4
2019-03-18T10:13:11.355Z,69.6
2019-03-18T10:14:16.340Z,69.6
2019-03-18T10:14:51.972Z,69.6
2019-03-18T10:15:41.252Z,69.7
2019-03-18T10:16:31.316Z,69.8
2019-03-18T10:17:21.919Z,69.8
2019-03-18T10:18:11.980Z,69.9
2019-03-18T10:19:01.499Z,69.9
2019-03-18T10:19:55.035Z,70
2019-03-18T10:20:42.161Z,70.1
2019-03-18T10:21:31.969Z,70.1
2019-03-18T10:22:22.276Z,70.2
2019-03-18T10:23:11.819Z,70.3
2019-03-18T10:24:02.424Z,70.4
2019-03-18T10:24:52.261Z,70.4
2019-03-18T10:25:42.524Z,70.4
2019-03-18T10:26:32.305Z,70.5
2019-03-18T10:27:22.643Z,70.5
2019-03-18T10:28:12.703Z,70.5
2019-03-18T10:29:02.786Z,70.6
2019-03-18T10:29:52.271Z,70.7
2019-03-18T10:30:42.348Z,70.7
2019-03-18T10:31:32.688Z,70.8
2019-03-18T10:32:21.883Z,70.7
2019-03-18T10:33:13.092Z,70.7
2019-03-18T10:34:03.148Z,70.7
2019-03-18T10:34:53.216Z,70.8
2019-03-18T10:35:42.985Z,70.8
2019-03-18T10:36:33.318Z,70.8
2019-03-18T10:37:23.468Z,70.9
2019-03-18T10:38:13.438Z,70.9
2019-03-18T10:39:03.490Z,70.9
2019-03-18T10:39:53.549Z,70.9
2019-03-18T10:40:43.060Z,70.9
2019-03-18T10:41:33.398Z,70.9
2019-03-18T10:42:23.202Z,71
2019-03-18T10:43:13.818Z,71.1
2019-03-18T10:44:03.317Z,71.1
2019-03-18T10:44:53.640Z,71.1
2019-03-18T10:45:43.688Z,71.2
2019-03-18T10:46:34.022Z,71.3
2019-03-18T10:47:23.826Z,71.3
2019-03-18T10:48:13.867Z,71.4
2019-03-18T10:49:04.213Z,71.4
2019-03-18T10:49:54.015Z,71.4
2019-03-18T10:50:43.784Z,71.4
2019-03-18T10:51:35.192Z,71.6
2019-03-18T10:52:24.396Z,71.6
2019-03-18T10:53:14.363Z,71.6
2019-03-18T10:54:04.412Z,71.6
2019-03-18T10:54:54.797Z,71.7
2019-03-18T10:55:44.742Z,71.7
2019-03-18T10:56:34.462Z,71.7
2019-03-18T10:57:24.534Z,71.7
2019-03-18T10:58:14.882Z,71.7
2019-03-18T10:59:04.418Z,71.8
2019-03-18T10:59:54.772Z,71.8
2019-03-18T11:00:44.290Z,71.8
2019-03-18T11:01:34.834Z,71.9
2019-03-18T11:02:25.170Z,71.9
2019-03-18T11:03:14.684Z,71.9
2019-03-18T11:04:05.021Z,71.9
2019-03-18T11:04:54.818Z,71.9
2019-03-18T11:05:44.586Z,71.9
2019-03-18T11:06:35.269Z,71.9
2019-03-18T11:07:25.564Z,71.9
2019-03-18T11:08:15.604Z,71.9
2019-03-18T11:09:05.399Z,71.9
2019-03-18T11:09:55.181Z,71.9
2019-03-18T11:10:45.513Z,72
2019-03-18T11:11:35.039Z,72
2019-03-18T11:12:25.348Z,72
2019-03-18T11:13:15.961Z,72.1
2019-03-18T11:14:05.751Z,72.1
2019-03-18T11:14:56.103Z,72
2019-03-18T11:15:45.590Z,72
2019-03-18T11:16:36.221Z,72
2019-03-18T11:17:25.728Z,71.9
2019-03-18T11:18:16.338Z,71.9
2019-03-18T11:19:06.431Z,71.9
2019-03-18T11:20:01.594Z,71.9
2019-03-18T11:20:46.250Z,71.9
2019-03-18T11:21:36.015Z,71.9
2019-03-18T11:22:26.353Z,71.8
2019-03-18T11:23:16.123Z,71.8
2019-03-18T11:24:06.210Z,71.8
2019-03-18T11:24:56.252Z,71.8
2019-03-18T11:25:46.863Z,71.8
2019-03-18T11:26:36.913Z,71.8
2019-03-18T11:27:26.747Z,71.8
2019-03-18T11:28:16.800Z,71.7
2019-03-18T11:29:09.428Z,71.7
2019-03-18T11:29:57.165Z,71.6
2019-03-18T11:30:47.231Z,71.6
2019-03-18T11:31:36.805Z,71.5
2019-03-18T11:32:27.354Z,71.4
2019-03-18T11:33:17.393Z,71.4
2019-03-18T11:34:06.917Z,71.4
2019-03-18T11:34:57.053Z,71.4
2019-03-18T11:35:47.594Z,71.3
2019-03-18T11:36:37.665Z,71.3
2019-03-18T11:37:27.437Z,71.3
2019-03-18T11:38:17.219Z,71.2
2019-03-18T11:39:07.287Z,71.2
2019-03-18T11:39:57.335Z,71.1
2019-03-18T11:40:47.907Z,71.1
2019-03-18T11:41:40.810Z,71.1
2019-03-18T11:42:28.125Z,71
2019-03-18T11:43:17.574Z,71
2019-03-18T11:44:07.933Z,70.9
2019-03-18T11:44:58.244Z,71
2019-03-18T11:45:47.788Z,71
2019-03-18T11:46:40.987Z,70.9
2019-03-18T11:47:27.884Z,70.9
2019-03-18T11:48:18.509Z,70.9
2019-03-18T11:49:08.299Z,70.8
2019-03-18T11:50:12.364Z,70.8
2019-03-18T11:50:48.400Z,70.6
2019-03-18T11:51:38.393Z,70.6
2019-03-18T11:52:28.544Z,70.6
2019-03-18T11:53:18.617Z,70.6
2019-03-18T11:54:08.410Z,70.5
2019-03-18T11:54:59.013Z,70.5
2019-03-18T11:55:48.761Z,70.5
2019-03-18T11:56:38.268Z,70.5
2019-03-18T11:57:29.179Z,70.5
2019-03-18T11:58:18.960Z,70.5
2019-03-18T11:59:08.544Z,70.5
2019-03-18T11:59:59.365Z,70.5
2019-03-18T12:00:49.398Z,70.4
2019-03-18T12:01:38.906Z,70.5
2019-03-18T12:02:31.396Z,70.4
2019-03-18T12:03:19.318Z,70.4
2019-03-18T12:04:09.355Z,70.4
2019-03-18T12:06:30.768Z,70.4
2019-03-18T12:07:20.573Z,70.3
2019-03-18T12:08:10.720Z,70.4
2019-03-18T12:09:01.235Z,70.4
2019-03-18T12:09:51.293Z,70.3
2019-03-18T12:10:41.340Z,70.3
2019-03-18T12:11:31.419Z,70.2
2019-03-18T12:12:21.510Z,70.2
2019-03-18T12:13:11.269Z,70.2
2019-03-18T12:14:01.315Z,70.1
2019-03-18T12:14:51.736Z,70.1
2019-03-18T12:15:41.452Z,70.1
2019-03-18T12:16:30.684Z,70.1
2019-03-18T12:17:21.295Z,70
2019-03-18T12:18:11.653Z,69.9
2019-03-18T12:19:01.676Z,69.9
2019-03-18T12:19:51.749Z,69.9
2019-03-18T12:20:41.902Z,69.9
2019-03-18T12:21:31.585Z,69.8
2019-03-18T12:22:21.914Z,69.8
2019-03-18T12:23:11.977Z,69.7
2019-03-18T12:24:02.062Z,69.6
2019-03-18T12:24:51.847Z,69.6
2019-03-18T12:25:41.902Z,69.5
2019-03-18T12:26:31.939Z,69.4
2019-03-18T12:27:22.277Z,69.3
2019-03-18T12:28:12.074Z,69.3
2019-03-18T12:29:02.448Z,69.2
2019-03-18T12:29:52.744Z,69.1
2019-03-18T12:30:42.258Z,69.1
2019-03-18T12:31:32.879Z,68.9
2019-03-18T12:32:22.655Z,68.9
2019-03-18T12:33:13.016Z,68.8
2019-03-18T12:34:02.521Z,68.7
2019-03-18T12:34:52.283Z,68.6
2019-03-18T12:35:42.886Z,68.6
2019-03-18T12:36:32.967Z,68.6
2019-03-18T12:37:22.749Z,68.5
2019-03-18T12:38:13.362Z,68.4
2019-03-18T12:39:03.206Z,68.4
2019-03-18T12:39:53.211Z,68.3
2019-03-18T12:40:43.251Z,68.2
2019-03-18T12:41:33.635Z,68.1
2019-03-18T12:42:23.673Z,68.1
2019-03-18T12:43:13.445Z,67.9
2019-03-18T12:44:03.941Z,67.9
2019-03-18T12:44:53.838Z,67.8
2019-03-18T12:45:43.916Z,67.7
2019-03-18T12:46:33.691Z,67.6
2019-03-18T12:47:23.208Z,67.5
2019-03-18T12:48:13.821Z,67.4
2019-03-18T12:49:04.206Z,67.4
2019-03-18T12:49:53.963Z,67.3
2019-03-18T12:50:59.658Z,67.3
2019-03-18T12:51:34.078Z,66.9
2019-03-18T12:52:24.373Z,66.8
2019-03-18T12:53:14.181Z,66.6
2019-03-18T12:54:04.230Z,66.5
2019-03-18T12:54:54.568Z,66.6
2019-03-18T12:55:44.070Z,66.6
2019-03-18T12:56:34.402Z,66.6
2019-03-18T12:57:24.465Z,66.6
2019-03-18T12:58:14.329Z,66.5
2019-03-18T12:59:04.602Z,66.4
2019-03-18T12:59:54.652Z,66.3
2019-03-18T13:00:44.997Z,66.2
2019-03-18T13:01:34.853Z,66.2
2019-03-18T13:02:24.630Z,66.1
2019-03-18T13:03:15.174Z,66.1
2019-03-18T13:04:04.975Z,66.1
2019-03-18T13:04:54.740Z,65.9
2019-03-18T13:05:44.884Z,65.9
2019-03-18T13:06:36.480Z,65.8
2019-03-18T13:07:25.538Z,65.7
2019-03-18T13:08:15.262Z,65.6
2019-03-18T13:09:05.325Z,65.6
2019-03-18T13:09:55.687Z,65.5
2019-03-18T13:10:45.712Z,65.4
2019-03-18T13:11:35.328Z,65.4
2019-03-18T13:12:25.839Z,65.3
2019-03-18T13:13:15.904Z,65.3
2019-03-18T13:14:05.737Z,65.3
2019-03-18T13:14:56.031Z,65.2
2019-03-18T13:15:46.275Z,65.1
2019-03-18T13:16:35.887Z,65.1
2019-03-18T13:17:26.231Z,65.1
2019-03-18T13:18:15.996Z,65
2019-03-18T13:19:06.043Z,64.9
2019-03-18T13:19:56.097Z,64.9
2019-03-18T13:20:45.909Z,64.9
2019-03-18T13:21:35.972Z,64.8
2019-03-18T13:22:26.334Z,64.8
2019-03-18T13:23:16.094Z,64.7
2019-03-18T13:24:06.406Z,64.6
2019-03-18T13:24:56.191Z,64.5
2019-03-18T13:25:46.256Z,64.4
2019-03-18T13:26:36.616Z,64.4
2019-03-18T13:27:26.394Z,64.4
2019-03-18T13:28:16.445Z,64.4
2019-03-18T13:29:07.064Z,64.3
2019-03-18T13:29:57.113Z,64.3
2019-03-18T13:30:46.634Z,63.9
2019-03-18T13:31:37.244Z,63
2019-03-18T13:32:27.301Z,61.9
2019-03-18T13:33:17.350Z,61
2019-03-18T13:34:06.866Z,60.1
2019-03-18T13:34:57.220Z,59.2
2019-03-18T13:35:47.301Z,58.3
2019-03-18T13:36:37.057Z,57.4
2019-03-18T13:37:27.398Z,56.7
2019-03-18T13:38:17.733Z,55.9
2019-03-18T13:39:07.793Z,55.1
2019-03-18T13:39:57.580Z,54.4
2019-03-18T13:40:48.599Z,53.7
2019-03-18T13:41:37.706Z,52.9
2019-03-18T13:42:28.021Z,52.3
2019-03-18T13:43:17.813Z,51.6
2019-03-18T13:44:08.156Z,51.1
2019-03-18T13:44:58.198Z,50.4
2019-03-18T13:45:58.553Z,49.8
2019-03-18T13:46:38.065Z,49.1
2019-03-18T13:47:28.102Z,48.7
2019-03-18T13:48:17.915Z,48.2
2019-03-18T13:49:08.228Z,47.6
2019-03-18T13:49:58.005Z,47.1
2019-03-18T13:50:48.347Z,46.6
2019-03-18T13:51:38.132Z,46.2
2019-03-18T13:52:28.195Z,45.8
2019-03-18T13:53:17.972Z,45.3
2019-03-18T13:54:08.603Z,44.9
2019-03-18T13:54:58.162Z,44.4
2019-03-18T13:55:48.987Z,44
2019-03-18T13:56:38.779Z,43.6
2019-03-18T13:57:28.282Z,43.2
2019-03-18T13:58:19.247Z,42.8
2019-03-18T13:59:08.978Z,42.4
2019-03-18T13:59:59.014Z,42.1
2019-03-18T14:00:48.805Z,41.8
2019-03-18T14:01:38.924Z,41.4
2019-03-18T14:02:29.474Z,41.1
2019-03-18T14:03:19.269Z,40.8
2019-03-18T14:04:09.085Z,40.4
2019-03-18T14:04:59.382Z,40.1
2019-03-18T14:07:30.428Z,39.3
2019-03-18T14:08:20.473Z,38.9
2019-03-18T14:09:10.834Z,38.7
2019-03-18T14:10:01.154Z,38.4
2019-03-18T14:10:50.952Z,38.1
2019-03-18T14:11:40.990Z,37.9
2019-03-18T14:12:31.323Z,37.6
2019-03-18T14:13:21.395Z,37.4
2019-03-18T14:14:10.899Z,37.1
2019-03-18T14:15:01.770Z,36.9
2019-03-18T14:15:51.035Z,36.7
2019-03-18T14:16:41.095Z,36.5
2019-03-18T14:17:30.860Z,36.3
2019-03-18T14:18:21.014Z,36.1
2019-03-18T14:19:11.565Z,35.9
2019-03-18T14:20:04.092Z,35.6